Time;durP1;ratioP1;P1;durP2;ratioP2;P2;SDS_P1;SDS_P2;PMS_P1;PMS_P2;Temp;Humidity;BMP_temperature;BMP_pressure;BME280_temperature;BME280_humidity;BME280_pressure;Samples;Min_cycle;Max_cycle;Signal;HPM_P1;HPM_P2
2022/06/12 00:02:24;;;;;;;2.83;1.02;;;12.80;99.90;;;;;;5035093;28;20053;-84
2022/06/12 00:04:50;;;;;;;3.65;1.20;;;12.70;99.90;;;;;;5017542;28;20410;-83
2022/06/12 00:07:17;;;;;;;3.35;1.00;;;12.70;99.90;;;;;;5034696;28;20045;-83
2022/06/12 00:09:42;;;;;;;4.32;1.25;;;12.90;99.90;;;;;;5034640;28;20045;-82
2022/06/12 00:12:08;;;;;;;3.85;1.27;;;13.10;99.90;;;;;;5034303;28;20041;-83
2022/06/12 00:14:34;;;;;;;4.53;0.77;;;12.50;99.90;;;;;;5035218;28;20107;-85
2022/06/12 00:17:00;;;;;;;5.88;1.17;;;12.40;99.90;;;;;;5016649;28;20385;-88
2022/06/12 00:19:26;;;;;;;4.07;1.15;;;12.50;99.90;;;;;;5016776;28;20046;-82
2022/06/12 00:21:51;;;;;;;4.13;0.93;;;12.30;99.90;;;;;;5034520;28;20049;-84
2022/06/12 00:24:19;;;;;;;4.40;0.98;;;12.30;99.90;;;;;;5034789;28;20049;-82
2022/06/12 00:26:48;;;;;;;3.33;1.23;;;12.30;99.90;;;;;;5017202;28;20440;-85
2022/06/12 00:29:17;;;;;;;2.75;1.10;;;12.50;99.90;;;;;;5034100;28;20048;-83
2022/06/12 00:31:46;;;;;;;6.93;1.00;;;12.30;99.90;;;;;;5026478;28;20048;-84
2022/06/12 00:34:14;;;;;;;4.07;0.85;;;12.20;99.90;;;;;;5034343;28;20464;-83
2022/06/12 00:36:40;;;;;;;3.80;0.90;;;12.50;99.90;;;;;;5034861;28;20100;-84
2022/06/12 00:39:08;;;;;;;3.28;1.25;;;12.20;99.90;;;;;;5034574;28;20060;-84
2022/06/12 00:41:35;;;;;;;3.35;1.20;;;12.10;99.90;;;;;;5034411;28;20406;-83
2022/06/12 00:44:02;;;;;;;4.30;1.20;;;12.10;99.90;;;;;;5034966;28;20042;-84
2022/06/12 00:46:51;;;;;;;3.95;0.90;;;12.10;99.90;;;;;;5017200;28;20091;-83
2022/06/12 00:49:40;;;;;;;2.33;1.45;;;12.00;99.90;;;;;;5034775;28;20095;-87
2022/06/12 00:52:15;;;;;;;5.40;1.75;;;12.00;99.90;;;;;;5033892;28;20045;-85
2022/06/12 00:54:44;;;;;;;5.63;1.60;;;12.10;99.90;;;;;;5033750;28;20041;-85
2022/06/12 00:57:11;;;;;;;3.55;1.58;;;12.00;99.90;;;;;;5016624;28;20053;-86
2022/06/12 00:59:50;;;;;;;5.55;1.70;;;12.10;99.90;;;;;;5033541;28;20095;-85
2022/06/12 01:02:21;;;;;;;6.72;2.13;;;11.80;99.90;;;;;;5032986;28;20116;-87
2022/06/12 01:07:40;;;;;;;5.65;1.73;;;12.40;99.90;;;;;;5016211;28;20092;-84
2022/06/12 01:10:09;;;;;;;5.47;2.45;;;11.70;99.90;;;;;;5033550;28;20427;-86
2022/06/12 01:12:44;;;;;;;7.75;2.72;;;11.70;99.90;;;;;;5021576;28;20041;-85
2022/06/12 01:15:34;;;;;;;7.22;2.45;;;11.70;99.90;;;;;;5016696;28;20107;-84
2022/06/12 01:18:00;;;;;;;4.40;1.80;;;12.20;99.90;;;;;;5033981;28;20050;-86
2022/06/12 01:20:31;;;;;;;5.97;2.60;;;12.10;99.90;;;;;;5033886;28;20033;-85
2022/06/12 01:23:16;;;;;;;4.55;1.67;;;11.70;99.90;;;;;;5032835;28;20041;-84
2022/06/12 01:25:47;;;;;;;5.13;1.65;;;11.70;99.90;;;;;;5033580;28;20046;-85
2022/06/12 01:28:37;;;;;;;3.08;1.63;;;11.90;99.90;;;;;;5033456;28;20045;-85
2022/06/12 01:31:18;;;;;;;3.95;1.27;;;11.70;99.90;;;;;;5016045;28;20095;-83
2022/06/12 01:33:52;;;;;;;5.72;1.65;;;11.60;99.90;;;;;;5014167;28;20124;-88
2022/06/12 01:36:25;;;;;;;5.13;1.40;;;11.60;99.90;;;;;;5033946;28;20137;-87
2022/06/12 01:39:37;;;;;;;4.60;1.50;;;11.60;99.90;;;;;;5016122;28;20120;-87
2022/06/12 01:42:03;;;;;;;5.43;1.30;;;11.60;99.90;;;;;;5033096;28;20049;-85
2022/06/12 01:44:37;;;;;;;4.70;1.10;;;11.60;99.90;;;;;;5020475;28;20521;-88
2022/06/12 01:47:28;;;;;;;4.82;0.88;;;11.60;99.90;;;;;;5033497;28;20064;-86
2022/06/12 01:50:02;;;;;;;5.93;1.35;;;11.60;99.90;;;;;;5016061;28;20057;-88
2022/06/12 01:52:48;;;;;;;3.78;0.90;;;11.60;99.90;;;;;;5033469;28;20499;-88
2022/06/12 01:55:41;;;;;;;4.25;1.10;;;11.50;99.90;;;;;;5021278;28;20546;-91
2022/06/12 01:58:13;;;;;;;4.45;1.10;;;11.50;99.90;;;;;;5015097;28;20398;-89
2022/06/12 02:00:45;;;;;;;3.45;1.00;;;11.50;99.90;;;;;;5032915;28;20050;-90
2022/06/12 02:03:14;;;;;;;3.75;0.73;;;11.50;99.90;;;;;;5032622;28;20052;-84
2022/06/12 02:05:57;;;;;;;4.32;1.25;;;11.50;99.90;;;;;;5014556;28;20053;-85
2022/06/12 02:08:33;;;;;;;2.08;0.80;;;11.50;99.90;;;;;;5027372;28;20049;-85
2022/06/12 02:13:56;;;;;;;3.33;0.80;;;11.80;99.90;;;;;;5031451;28;20568;-84
2022/06/12 02:16:28;;;;;;;2.05;0.77;;;11.40;99.90;;;;;;5032049;28;20042;-83
2022/06/12 02:19:02;;;;;;;2.38;0.77;;;11.50;99.90;;;;;;5032403;28;20041;-85
2022/06/12 02:21:37;;;;;;;2.38;0.80;;;11.60;99.90;;;;;;5032347;28;20516;-84
2022/06/12 02:24:33;;;;;;;0.95;0.60;;;11.50;99.90;;;;;;5032211;28;20141;-83
2022/06/12 02:27:29;;;;;;;1.13;0.70;;;11.50;99.90;;;;;;5013763;28;20050;-83
2022/06/12 02:30:05;;;;;;;4.53;0.60;;;11.50;99.90;;;;;;4932841;29;20057;-83
2022/06/12 02:32:34;;;;;;;4.13;0.70;;;11.50;99.90;;;;;;4933203;29;20087;-85
2022/06/12 02:35:22;;;;;;;0.50;0.40;;;12.20;99.90;;;;;;4932631;29;20067;-85
2022/06/12 02:37:55;;;;;;;2.22;0.40;;;11.70;99.90;;;;;;4908896;29;20056;-85
2022/06/12 02:40:34;;;;;;;2.95;0.50;;;12.00;99.90;;;;;;4913723;29;20060;-85
2022/06/12 02:43:06;;;;;;;1.10;0.38;;;11.70;99.90;;;;;;4896248;29;20056;-86
2022/06/12 02:45:37;;;;;;;1.85;0.40;;;11.70;99.90;;;;;;4928873;29;20063;-85
2022/06/12 02:48:05;;;;;;;1.27;0.30;;;11.80;99.90;;;;;;4893925;29;20053;-86
2022/06/12 02:50:39;;;;;;;1.77;0.40;;;11.80;99.90;;;;;;4895332;29;20556;-85
2022/06/12 02:53:32;;;;;;;1.17;0.30;;;11.90;99.90;;;;;;4896347;29;20497;-83
2022/06/12 02:56:16;;;;;;;1.67;0.30;;;11.90;99.90;;;;;;4895323;29;20140;-83
2022/06/12 02:59:06;;;;;;;7.80;0.95;;;11.90;99.90;;;;;;4898252;29;20052;-83
2022/06/12 03:01:37;;;;;;;3.65;0.80;;;12.00;99.90;;;;;;4912033;29;20063;-84
2022/06/12 03:04:12;;;;;;;3.40;0.80;;;12.10;99.90;;;;;;4912094;29;20485;-84
2022/06/12 03:06:38;;;;;;;4.95;0.70;;;12.50;99.90;;;;;;4930567;29;20059;-84
2022/06/12 03:09:06;;;;;;;4.13;0.90;;;12.30;99.90;;;;;;4935418;29;20052;-83
2022/06/12 03:11:40;;;;;;;4.20;1.00;;;12.60;99.90;;;;;;4951525;29;20047;-83
2022/06/12 03:14:10;;;;;;;2.70;0.70;;;12.30;99.90;;;;;;4965624;28;20375;-83
2022/06/12 03:16:40;;;;;;;3.17;1.08;;;12.40;99.90;;;;;;5031772;28;20037;-83
2022/06/12 03:19:13;;;;;;;3.17;0.88;;;12.40;99.90;;;;;;5031511;28;20041;-83
2022/06/12 03:22:12;;;;;;;1.75;0.50;;;12.50;99.90;;;;;;5031787;28;20128;-83
2022/06/12 03:24:52;;;;;;;4.20;1.52;;;12.40;99.90;;;;;;5026495;28;20037;-83
2022/06/12 03:27:53;;;;;;;6.88;0.70;;;12.40;99.90;;;;;;5017554;28;20038;-83
2022/06/12 03:30:30;;;;;;;3.50;0.88;;;12.40;99.90;;;;;;5016960;28;20045;-83
2022/06/12 03:33:01;;;;;;;3.03;0.45;;;12.50;99.90;;;;;;5017426;28;20134;-84
2022/06/12 03:35:42;;;;;;;5.10;0.63;;;12.40;99.90;;;;;;5035034;28;20041;-84
2022/06/12 03:38:39;;;;;;;2.80;0.70;;;12.50;99.90;;;;;;5035284;28;20045;-83
2022/06/12 03:41:08;;;;;;;9.90;1.05;;;12.50;99.90;;;;;;5034316;28;20073;-83
2022/06/12 03:44:06;;;;;;;5.40;0.65;;;12.60;99.90;;;;;;5034993;28;20056;-83
2022/06/12 03:46:38;;;;;;;4.72;0.70;;;13.10;99.90;;;;;;4935931;29;20151;-84
2022/06/12 03:49:25;;;;;;;3.72;0.80;;;12.90;99.90;;;;;;4936344;29;20039;-85
2022/06/12 03:52:12;;;;;;;3.45;0.60;;;12.60;99.90;;;;;;4922721;29;20047;-83
2022/06/12 03:55:06;;;;;;;4.47;0.80;;;12.50;99.90;;;;;;4953710;29;20086;-84
2022/06/12 03:57:54;;;;;;;2.17;0.50;;;12.60;99.90;;;;;;4938176;29;20087;-86
2022/06/12 04:00:23;;;;;;;4.35;0.90;;;12.60;99.90;;;;;;4955118;29;20062;-84
2022/06/12 04:02:57;;;;;;;3.70;0.82;;;12.60;99.90;;;;;;4954918;28;20054;-86
2022/06/12 04:05:30;;;;;;;6.47;2.13;;;13.30;99.90;;;;;;4939399;29;20051;-83
2022/06/12 04:07:58;;;;;;;3.10;0.80;;;12.70;99.90;;;;;;4957983;29;20087;-90
2022/06/12 04:10:29;;;;;;;3.92;0.60;;;12.70;99.90;;;;;;4940900;29;20059;-88
2022/06/12 04:12:56;;;;;;;4.68;0.85;;;12.80;99.90;;;;;;4956990;29;20127;-87
2022/06/12 04:15:31;;;;;;;3.90;0.80;;;12.80;99.90;;;;;;4956301;29;20095;-89
2022/06/12 04:17:57;;;;;;;3.95;0.75;;;12.80;99.90;;;;;;4928903;29;20118;-89
2022/06/12 04:20:28;;;;;;;6.15;1.10;;;12.80;99.90;;;;;;4945704;29;20043;-89
2022/06/12 04:23:03;;;;;;;4.88;1.10;;;12.80;99.90;;;;;;4995839;28;20045;-90
2022/06/12 04:25:45;;;;;;;9.73;1.20;;;12.90;99.90;;;;;;5017547;28;20129;-88
2022/06/12 04:28:53;;;;;;;6.20;0.93;;;12.90;99.90;;;;;;5020010;28;20508;-89
2022/06/12 04:31:19;;;;;;;2.58;0.40;;;13.00;99.90;;;;;;4939189;29;20139;-89
2022/06/12 04:34:09;;;;;;;5.00;0.95;;;13.70;99.90;;;;;;4939232;29;20058;-90
2022/06/12 04:36:36;;;;;;;4.03;0.60;;;13.20;99.90;;;;;;4955482;28;20048;-89
2022/06/12 04:39:03;;;;;;;5.07;0.80;;;13.30;99.90;;;;;;4940254;29;20046;-89
2022/06/12 04:41:31;;;;;;;7.25;0.90;;;13.40;99.90;;;;;;4956417;29;20082;-90
2022/06/12 04:43:57;;;;;;;5.80;1.45;;;13.60;99.90;;;;;;4954570;29;20051;-89
2022/06/12 04:46:24;;;;;;;6.20;0.88;;;13.80;99.90;;;;;;4957031;29;20121;-90
2022/06/12 04:48:53;;;;;;;1.77;0.60;;;13.70;99.90;;;;;;4955251;29;20065;-87
2022/06/12 04:51:19;;;;;;;4.63;0.80;;;13.80;99.90;;;;;;4954719;29;20420;-90
2022/06/12 04:53:46;;;;;;;8.13;1.25;;;14.40;99.90;;;;;;4954675;29;20043;-88
2022/06/12 04:56:14;;;;;;;4.43;0.93;;;13.80;99.90;;;;;;4937771;29;20044;-90
2022/06/12 04:58:41;;;;;;;3.25;0.73;;;14.00;99.90;;;;;;4949644;29;20126;-90
2022/06/12 05:01:07;;;;;;;6.55;0.95;;;14.00;99.90;;;;;;4954684;29;20078;-88
2022/06/12 05:03:33;;;;;;;6.25;0.75;;;14.20;99.90;;;;;;4937837;29;20039;-90
2022/06/12 05:05:59;;;;;;;7.07;1.00;;;14.10;99.90;;;;;;5003299;28;20057;-88
2022/06/12 05:08:25;;;;;;;8.52;1.25;;;14.40;99.90;;;;;;5033947;28;20056;-90
2022/06/12 05:10:50;;;;;;;3.15;0.80;;;14.30;99.90;;;;;;5034084;28;20037;-86
2022/06/12 05:13:16;;;;;;;8.93;1.05;;;14.20;99.90;;;;;;5016924;28;20092;-90
2022/06/12 05:15:44;;;;;;;2.60;0.70;;;14.10;99.90;;;;;;5033820;28;20041;-89
2022/06/12 05:18:11;;;;;;;3.13;0.70;;;14.10;99.90;;;;;;5035794;28;20103;-83
2022/06/12 05:20:37;;;;;;;6.10;0.80;;;14.20;99.90;;;;;;5034097;28;20045;-84
2022/06/12 05:23:04;;;;;;;3.85;0.60;;;14.20;99.90;;;;;;5033197;28;20048;-83
2022/06/12 05:25:31;;;;;;;4.15;0.85;;;14.30;99.90;;;;;;5033021;28;20081;-83
2022/06/12 05:27:57;;;;;;;4.80;0.95;;;14.70;99.90;;;;;;5032497;28;20057;-84
2022/06/12 05:30:27;;;;;;;3.30;0.70;;;14.70;99.90;;;;;;5015419;28;20477;-85
2022/06/12 05:32:54;;;;;;;5.95;0.80;;;14.60;99.90;;;;;;5015875;28;20095;-84
2022/06/12 05:35:21;;;;;;;5.40;0.70;;;14.70;99.90;;;;;;5032897;28;20045;-85
2022/06/12 05:37:47;;;;;;;4.65;0.90;;;14.80;99.90;;;;;;5032765;28;20120;-84
2022/06/12 05:40:18;;;;;;;5.15;0.90;;;14.90;99.90;;;;;;5033198;28;20049;-83
2022/06/12 05:42:44;;;;;;;4.07;0.80;;;15.10;99.90;;;;;;5033242;28;20055;-83
2022/06/12 05:45:17;;;;;;;6.60;1.02;;;15.30;99.90;;;;;;5033146;28;20038;-85
2022/06/12 05:47:53;;;;;;;6.30;1.02;;;15.30;99.90;;;;;;5032320;28;20124;-84
2022/06/12 05:50:21;;;;;;;4.32;0.70;;;15.40;99.90;;;;;;5032020;28;20052;-85
2022/06/12 05:52:48;;;;;;;3.95;0.63;;;15.70;99.90;;;;;;5026020;28;20049;-84
2022/06/12 05:55:14;;;;;;;6.13;0.93;;;15.80;99.90;;;;;;5015517;28;20448;-84
2022/06/12 05:57:40;;;;;;;5.70;0.80;;;15.90;99.90;;;;;;5032064;28;20076;-85
2022/06/12 06:00:10;;;;;;;5.95;1.15;;;16.10;99.90;;;;;;5033026;28;20050;-88
2022/06/12 06:02:38;;;;;;;3.53;0.70;;;16.20;99.90;;;;;;5033963;28;20041;-87
2022/06/12 06:05:07;;;;;;;5.25;0.68;;;17.00;99.90;;;;;;5017296;28;20049;-87
2022/06/12 06:07:35;;;;;;;2.30;0.80;;;16.60;99.90;;;;;;5034338;28;20042;-86
2022/06/12 06:10:02;;;;;;;3.47;0.60;;;16.60;99.90;;;;;;5035053;28;20383;-86
2022/06/12 06:12:28;;;;;;;7.95;0.80;;;16.70;99.90;;;;;;5036179;28;20092;-85
2022/06/12 06:14:54;;;;;;;5.63;1.25;;;16.90;99.90;;;;;;5034507;28;20030;-84
2022/06/12 06:17:20;;;;;;;6.97;1.35;;;17.20;99.90;;;;;;5019228;28;20507;-83
2022/06/12 06:19:45;;;;;;;6.25;1.65;;;17.10;99.90;;;;;;5033285;28;20181;-89
2022/06/12 06:22:16;;;;;;;6.63;1.00;;;17.40;99.90;;;;;;5037052;28;20085;-86
2022/06/12 06:24:42;;;;;;;5.65;0.93;;;17.30;99.90;;;;;;5038006;28;20052;-90
2022/06/12 06:27:13;;;;;;;3.15;0.80;;;17.30;99.90;;;;;;5039078;28;20489;-89
2022/06/12 06:29:39;;;;;;;3.63;0.70;;;17.40;99.90;;;;;;5026468;28;20047;-92
2022/06/12 06:32:07;;;;;;;4.30;1.20;;;17.50;99.90;;;;;;5036936;28;20139;-88
2022/06/12 06:34:36;;;;;;;8.82;1.13;;;17.70;99.90;;;;;;5038348;28;20049;-87
2022/06/12 06:37:04;;;;;;;6.20;1.40;;;17.90;99.90;;;;;;5037422;28;20073;-88
2022/06/12 06:39:29;;;;;;;4.50;0.90;;;18.10;99.90;;;;;;5037433;28;20485;-94
2022/06/12 06:41:55;;;;;;;7.40;1.10;;;18.20;99.90;;;;;;5003750;28;20140;-91
2022/06/12 06:47:06;;;;;;;8.43;1.45;;;18.10;99.90;;;;;;5018421;28;20555;-87
2022/06/12 06:49:31;;;;;;;5.85;1.27;;;18.20;99.90;;;;;;5021092;28;20069;-92
2022/06/12 06:51:57;;;;;;;6.72;0.98;;;18.30;99.90;;;;;;5038497;28;20081;-92
2022/06/12 06:54:23;;;;;;;4.97;1.20;;;18.50;99.90;;;;;;5020216;28;20057;-91
2022/06/12 06:56:49;;;;;;;8.13;1.30;;;18.60;99.90;;;;;;5018958;28;20057;-89
2022/06/12 06:59:16;;;;;;;8.80;1.17;;;18.90;99.90;;;;;;5035914;28;20064;-93
2022/06/12 07:01:42;;;;;;;7.40;0.90;;;19.00;99.90;;;;;;5020270;28;20401;-89
2022/06/12 07:04:10;;;;;;;3.78;0.85;;;19.10;99.90;;;;;;5022098;28;20107;-91
2022/06/12 07:06:36;;;;;;;6.43;1.10;;;19.20;99.90;;;;;;5018738;28;20443;-92
2022/06/12 07:09:03;;;;;;;7.53;1.10;;;19.30;99.90;;;;;;5018669;28;20133;-91
2022/06/12 07:11:30;;;;;;;3.83;1.00;;;19.50;99.90;;;;;;5021810;28;20049;-91
2022/06/12 07:13:57;;;;;;;5.95;1.10;;;19.60;99.90;;;;;;5044178;28;20045;-94
2022/06/12 07:16:24;;;;;;;5.43;1.55;;;19.70;99.90;;;;;;5023361;28;20034;-95
2022/06/12 07:18:50;;;;;;;6.63;1.15;;;19.80;99.90;;;;;;5040182;28;20056;-86
2022/06/12 07:21:16;;;;;;;5.03;1.00;;;19.80;99.90;;;;;;5036724;28;20045;-89
2022/06/12 07:23:42;;;;;;;5.50;1.00;;;20.00;99.90;;;;;;5035495;28;20128;-90
2022/06/12 07:26:14;;;;;;;11.38;1.73;;;20.10;99.90;;;;;;5015508;28;20049;-87
2022/06/12 07:28:40;;;;;;;6.03;1.27;;;20.30;99.90;;;;;;5000723;28;20042;-87
2022/06/12 07:31:07;;;;;;;7.53;1.23;;;20.30;99.90;;;;;;5016002;28;20054;-88
2022/06/12 07:33:34;;;;;;;5.40;1.13;;;20.50;99.90;;;;;;5017475;28;20053;-87
2022/06/12 07:36:00;;;;;;;9.15;1.10;;;20.70;99.90;;;;;;5017619;28;20057;-87
2022/06/12 07:38:27;;;;;;;5.20;1.00;;;20.90;99.90;;;;;;5035180;28;20046;-87
2022/06/12 07:40:59;;;;;;;7.80;1.33;;;21.00;99.90;;;;;;5016370;28;20049;-88
2022/06/12 07:43:28;;;;;;;7.72;1.23;;;21.00;99.90;;;;;;5017502;28;20053;-88
2022/06/12 07:45:55;;;;;;;7.85;1.30;;;21.10;99.90;;;;;;5035123;28;20555;-88
2022/06/12 07:48:24;;;;;;;6.80;1.08;;;21.20;99.90;;;;;;5016870;28;20052;-87
2022/06/12 07:50:51;;;;;;;8.43;1.38;;;21.30;99.90;;;;;;5016841;28;20128;-88
2022/06/12 07:53:19;;;;;;;6.07;1.00;;;21.60;99.90;;;;;;5035110;28;20075;-88
2022/06/12 07:55:50;;;;;;;6.15;0.90;;;21.80;99.90;;;;;;5016495;28;20596;-88
2022/06/12 07:58:17;;;;;;;11.70;0.95;;;21.90;99.90;;;;;;5004519;28;20071;-86
2022/06/12 08:00:44;;;;;;;7.38;1.60;;;21.90;99.90;;;;;;5052782;28;20037;-89
2022/06/12 08:03:11;;;;;;;5.95;1.08;;;21.90;99.90;;;;;;5023282;28;20049;-87
2022/06/12 08:05:36;;;;;;;7.85;1.05;;;21.90;99.90;;;;;;5022390;28;20045;-87
2022/06/12 08:08:03;;;;;;;5.20;1.00;;;21.80;99.90;;;;;;5016316;28;20045;-87
2022/06/12 08:10:31;;;;;;;7.72;1.15;;;21.80;99.90;;;;;;5033508;28;20121;-91
2022/06/12 08:12:58;;;;;;;6.93;1.15;;;22.10;99.90;;;;;;5054908;28;20064;-92
2022/06/12 08:15:29;;;;;;;5.00;0.77;;;22.20;99.90;;;;;;5055008;28;20526;-91
2022/06/12 08:17:56;;;;;;;4.68;0.90;;;22.40;99.90;;;;;;5034605;28;20097;-93
2022/06/12 08:20:31;;;;;;;4.55;1.02;;;22.70;99.90;;;;;;5019064;28;20053;-92
2022/06/12 08:23:29;;;;;;;2.28;0.70;;;22.80;99.90;;;;;;5020038;28;20051;-92
2022/06/12 08:26:03;;;;;;;4.75;0.80;;;23.00;99.90;;;;;;5025824;28;20063;-93
2022/06/12 08:28:34;;;;;;;6.83;0.93;;;23.30;99.90;;;;;;5017131;28;20057;-92
2022/06/12 08:31:09;;;;;;;6.45;1.27;;;23.50;99.90;;;;;;5018423;28;20401;-91
2022/06/12 08:33:37;;;;;;;4.13;0.63;;;23.80;99.90;;;;;;5016714;28;20054;-94
2022/06/12 08:36:13;;;;;;;5.28;0.98;;;23.60;99.90;;;;;;5043224;28;20041;-94
2022/06/12 08:38:40;;;;;;;3.45;0.82;;;23.40;99.90;;;;;;5034941;28;20441;-93
2022/06/12 08:41:09;;;;;;;7.32;1.15;;;23.50;99.90;;;;;;5022870;28;20057;-91
2022/06/12 08:44:15;;;;;;;5.85;0.77;;;23.40;99.90;;;;;;5056181;22;20060;-93
2022/06/12 08:47:05;;;;;;;3.45;0.80;;;23.40;99.90;;;;;;4994044;28;20078;-93
2022/06/12 08:50:09;;;;;;;3.55;0.85;;;23.30;99.90;;;;;;4997295;28;20056;-92
2022/06/12 08:53:29;;;;;;;;;;;23.20;99.90;;;;;;4963381;28;20502;-89
2022/06/12 09:05:42;;;;;;;2.47;0.60;;;23.10;99.90;;;;;;4778462;26;20049;-88
2022/06/12 09:08:14;;;;;;;5.63;0.88;;;22.90;99.90;;;;;;5018514;28;20041;-88
2022/06/12 09:11:26;;;;;;;6.00;0.80;;;22.70;99.90;;;;;;5052675;28;20049;-88
2022/06/12 09:14:22;;;;;;;2.78;0.57;;;22.80;99.90;;;;;;4975908;28;20034;-87
2022/06/12 09:17:11;;;;;;;7.72;0.88;;;23.00;99.90;;;;;;4974648;28;20129;-88
2022/06/12 09:19:58;;;;;;;8.60;0.70;;;22.90;99.90;;;;;;4936719;29;20047;-88
2022/06/12 09:25:19;;;;;;;;;;;22.80;99.90;;;;;;5105302;22;20497;-88
2022/06/12 09:28:24;;;;;;;4.65;0.60;;;23.00;99.90;;;;;;5068485;22;20010;-88
2022/06/12 09:31:22;;;;;;;5.40;1.02;;;22.90;99.90;;;;;;5073209;28;20049;-88
2022/06/12 09:54:31;;;;;;;5.40;0.80;;;23.00;99.90;;;;;;4938351;29;20047;-91
2022/06/12 09:57:18;;;;;;;6.68;0.70;;;22.70;99.90;;;;;;4935993;29;20051;-90
2022/06/12 09:59:56;;;;;;;5.18;0.40;;;22.50;99.90;;;;;;4936008;29;20143;-89
2022/06/12 10:02:55;;;;;;;3.42;0.60;;;22.70;99.90;;;;;;4954223;28;20672;-89
2022/06/12 10:05:40;;;;;;;3.67;0.50;;;23.10;99.90;;;;;;4958724;28;20044;-88
2022/06/12 10:08:13;;;;;;;4.28;0.63;;;23.50;99.90;;;;;;4939370;29;20043;-90
2022/06/12 10:10:56;;;;;;;5.80;0.57;;;23.80;99.90;;;;;;4939237;28;20122;-95
2022/06/12 10:13:38;;;;;;;3.10;0.77;;;24.00;99.90;;;;;;4958046;29;20090;-92
2022/06/12 10:16:11;;;;;;;5.88;1.00;;;24.00;98.40;;;;;;4940370;29;20118;-91
2022/06/12 10:18:56;;;;;;;3.78;0.95;;;24.00;98.70;;;;;;4938644;29;20051;-92
2022/06/12 10:21:29;;;;;;;5.32;0.50;;;24.30;98.80;;;;;;4950699;29;20043;-93
2022/06/12 10:23:55;;;;;;;3.83;0.40;;;24.60;98.00;;;;;;4963139;29;20078;-93
2022/06/12 10:27:16;;;;;;;2.85;0.47;;;24.90;97.90;;;;;;4949881;29;20039;-94
2022/06/12 11:01:15;;;;;;;;;;;26.30;84.70;;;;;;2684418;23;20101;-88
2022/06/12 11:04:21;;;;;;;3.35;0.50;;;26.20;84.30;;;;;;4952513;29;19923;-89
2022/06/12 11:29:01;;;;;;;3.65;0.57;;;25.80;81.60;;;;;;3046394;26;20075;-90
2022/06/12 11:34:56;;;;;;;2.25;0.50;;;25.70;81.50;;;;;;4940678;29;20040;-90
2022/06/12 11:37:50;;;;;;;2.17;0.50;;;25.90;78.10;;;;;;4939463;29;20054;-92
2022/06/12 11:40:22;;;;;;;2.80;0.40;;;25.80;80.80;;;;;;4920581;29;20044;-88
2022/06/12 11:47:46;;;;;;;;;;;;;;;;;;;;;
2022/06/12 11:50:00;;;;;;;5.00;0.95;;;25.50;81.40;;;;;;4909757;29;20044;-89
2022/06/12 11:52:43;;;;;;;4.20;0.68;;;25.30;83.40;;;;;;4932833;29;20099;-90
2022/06/12 11:55:42;;;;;;;3.75;0.60;;;25.20;85.20;;;;;;4929173;29;20119;-92
2022/06/12 11:59:09;;;;;;;3.70;0.63;;;25.00;85.10;;;;;;4866208;29;20052;-91
2022/06/12 12:02:24;;;;;;;5.05;0.60;;;25.20;84.80;;;;;;4858638;29;20060;-92
2022/06/12 12:05:48;;;;;;;;;;;;;;;;;;;;;
2022/06/12 12:08:46;;;;;;;2.25;0.60;;;24.90;85.90;;;;;;4821512;29;20514;-92
2022/06/12 12:23:10;;;;;;;3.05;1.23;;;25.20;82.40;;;;;;4806641;29;20084;-93
2022/06/12 13:18:21;;;;;;;2.75;0.60;;;24.60;80.90;;;;;;4872488;29;20399;-92
2022/06/12 14:04:28;;;;;;;;;;;;;;;;;;;;;
2022/06/12 14:07:33;;;;;;;3.50;0.90;;;22.60;90.40;;;;;;4832516;29;20581;-92
2022/06/12 14:17:15;;;;;;;4.43;0.70;;;22.70;93.30;;;;;;4953185;29;20067;-89
2022/06/12 14:28:06;;;;;;;4.55;1.33;;;22.00;94.90;;;;;;5020034;23;20054;-89
2022/06/12 14:33:00;;;;;;;3.83;0.73;;;21.70;96.00;;;;;;4978361;23;20046;-87
2022/06/12 14:41:30;;;;;;;3.30;0.88;;;22.20;96.90;;;;;;5226882;23;20081;-90
2022/06/12 14:44:18;;;;;;;6.15;1.30;;;22.20;97.40;;;;;;4957296;29;20492;-94
2022/06/12 14:46:45;;;;;;;5.43;1.10;;;22.00;97.70;;;;;;4878456;29;20057;-91
2022/06/12 14:49:51;;;;;;;2.42;0.85;;;22.00;98.40;;;;;;4880379;29;20128;-96
2022/06/12 15:02:33;;;;;;;8.90;1.60;;;22.20;97.30;;;;;;4915027;29;20059;-89
2022/06/12 15:08:32;;;;;;;5.75;0.80;;;21.50;98.40;;;;;;4981459;23;20055;-90
2022/06/12 15:35:11;;;;;;;;;;;;;;;;;;;;;
2022/06/12 15:38:25;;;;;;;;;;;;;;;;;;;;;
2022/06/12 15:52:14;;;;;;;;;;;;;;;;;;;;;
2022/06/12 15:55:25;;;;;;;6.60;1.25;;;22.10;96.40;;;;;;5119196;28;20402;-90
2022/06/12 15:58:05;;;;;;;5.10;1.00;;;21.50;97.30;;;;;;5033190;28;20533;-91
2022/06/12 16:00:54;;;;;;;;;;;;;;;;;;;;;
2022/06/12 16:03:35;;;;;;;4.78;1.20;;;21.80;98.90;;;;;;5053811;28;20417;-89
2022/06/12 16:08:39;;;;;;;;;;;;;;;;;;;;;
2022/06/12 16:11:35;;;;;;;6.03;1.33;;;22.40;96.10;;;;;;5130585;27;20470;-92
2022/06/12 16:14:17;;;;;;;12.75;4.57;;;22.10;95.60;;;;;;5130112;28;20043;-91
2022/06/12 16:25:03;;;;;;;;;;;;;;;;;;;;;
2022/06/12 16:46:16;;;;;;;4.68;0.70;;;22.20;89.70;;;;;;5565084;23;20054;-92
2022/06/12 16:49:35;;;;;;;3.60;0.65;;;22.30;89.30;;;;;;4990829;28;20046;-91
2022/06/12 17:01:49;;;;;;;;;;;;;;;;;;;;;
2022/06/12 17:04:26;;;;;;;3.30;1.00;;;22.00;89.20;;;;;;4958652;28;19933;-91
2022/06/12 17:06:57;;;;;;;5.75;0.90;;;21.90;89.40;;;;;;4959864;28;20050;-92
2022/06/12 17:23:26;;;;;;;2.30;0.63;;;21.50;91.70;;;;;;4893547;29;20075;-90
2022/06/12 17:25:53;;;;;;;2.33;0.70;;;21.40;90.90;;;;;;4946206;23;20141;-90
2022/06/12 17:28:27;;;;;;;3.95;0.60;;;21.30;90.20;;;;;;4924524;29;20081;-92
2022/06/12 17:30:58;;;;;;;5.83;1.17;;;21.00;91.20;;;;;;4957723;28;20039;-88
2022/06/12 17:33:28;;;;;;;3.25;0.70;;;20.80;91.20;;;;;;4955142;28;20034;-91
2022/06/12 17:35:57;;;;;;;3.47;0.80;;;21.10;92.00;;;;;;4958590;28;20054;-89
2022/06/12 17:39:02;;;;;;;;;;;;;;;;;;;;;
2022/06/12 17:41:36;;;;;;;4.13;0.73;;;20.00;95.10;;;;;;4970327;28;20121;-93
2022/06/12 17:48:01;;;;;;;2.63;0.80;;;20.00;96.10;;;;;;4975145;28;20102;-91
2022/06/12 17:50:36;;;;;;;3.60;1.10;;;19.90;98.50;;;;;;4975724;28;20053;-92
2022/06/12 17:53:05;;;;;;;5.03;1.10;;;19.70;99.80;;;;;;4958281;28;20141;-90
2022/06/12 17:55:57;;;;;;;7.22;1.20;;;19.70;99.30;;;;;;4958179;28;20554;-91
2022/06/12 18:09:24;;;;;;;7.53;1.52;;;19.10;99.90;;;;;;4886098;29;20080;-82
2022/06/12 18:11:50;;;;;;;3.67;0.88;;;19.00;99.90;;;;;;4871880;29;20454;-82
2022/06/12 18:14:15;;;;;;;5.75;1.25;;;18.70;99.90;;;;;;4891866;29;20041;-82
2022/06/12 18:19:27;;;;;;;5.85;1.52;;;18.80;99.90;;;;;;4890804;29;20069;-82
2022/06/12 18:21:54;;;;;;;7.65;1.73;;;18.70;99.90;;;;;;4878499;29;20053;-81
2022/06/12 18:24:26;;;;;;;15.23;2.47;;;18.70;99.90;;;;;;4873056;29;20052;-83
2022/06/12 18:26:59;;;;;;;8.88;1.83;;;18.60;99.90;;;;;;4900617;29;20502;-83
2022/06/12 18:29:25;;;;;;;9.07;1.60;;;18.40;99.90;;;;;;4871794;29;20558;-85
2022/06/12 18:31:54;;;;;;;2.80;1.05;;;18.10;99.90;;;;;;4883348;29;20128;-85
2022/06/12 18:34:20;;;;;;;7.40;1.52;;;18.20;99.90;;;;;;4887819;29;20049;-84
2022/06/12 18:36:46;;;;;;;5.90;0.90;;;18.20;99.90;;;;;;4975373;28;20036;-89
2022/06/12 18:39:12;;;;;;;8.20;1.17;;;18.30;99.90;;;;;;4975051;28;20100;-85
2022/06/12 18:41:38;;;;;;;8.10;1.52;;;18.10;99.90;;;;;;4970856;28;20586;-93
2022/06/12 18:44:07;;;;;;;6.80;1.35;;;18.10;99.90;;;;;;4966698;28;20106;-86
2022/06/12 18:46:36;;;;;;;4.72;1.00;;;18.00;99.90;;;;;;4958349;29;20046;-92
2022/06/12 18:49:02;;;;;;;2.92;0.90;;;17.80;99.90;;;;;;5313844;23;20484;-87
2022/06/12 18:51:28;;;;;;;6.72;1.02;;;17.80;99.90;;;;;;4986312;28;20058;-87
2022/06/12 18:53:54;;;;;;;4.72;1.20;;;17.70;99.90;;;;;;4975289;28;20061;-88
2022/06/12 18:56:21;;;;;;;3.85;1.00;;;17.70;99.90;;;;;;4956464;28;20270;-87
2022/06/12 18:58:47;;;;;;;5.35;0.70;;;17.50;99.90;;;;;;4973307;28;20078;-90
2022/06/12 19:01:13;;;;;;;3.65;1.02;;;17.50;99.90;;;;;;4975504;28;20051;-84
2022/06/12 19:11:01;;;;;;;1.80;0.68;;;17.30;99.90;;;;;;4990390;28;20222;-87
2022/06/12 19:13:26;;;;;;;4.00;1.05;;;17.20;99.90;;;;;;4956755;28;20133;-88
2022/06/12 19:15:52;;;;;;;6.18;1.00;;;17.10;99.90;;;;;;4982104;28;20031;-84
2022/06/12 19:18:18;;;;;;;6.05;1.08;;;17.20;99.90;;;;;;4971745;28;20137;-85
2022/06/12 19:20:43;;;;;;;5.10;1.02;;;17.20;99.90;;;;;;4985069;28;20042;-86
2022/06/12 19:23:09;;;;;;;4.35;1.10;;;17.10;99.90;;;;;;4977935;28;20042;-87
2022/06/12 19:25:36;;;;;;;7.63;1.23;;;17.00;99.90;;;;;;4975027;28;20062;-88
2022/06/12 19:28:04;;;;;;;4.78;0.88;;;16.90;99.90;;;;;;4984644;28;20042;-88
2022/06/12 19:30:30;;;;;;;1.80;0.70;;;16.80;99.90;;;;;;4981701;28;20046;-84
2022/06/12 19:32:57;;;;;;;5.43;1.05;;;16.80;99.90;;;;;;4971928;28;20051;-85
2022/06/12 19:35:23;;;;;;;4.22;0.80;;;16.70;99.90;;;;;;4995604;28;20039;-85
2022/06/12 19:37:49;;;;;;;2.35;0.60;;;16.60;99.90;;;;;;4981791;28;20043;-86
2022/06/12 19:40:21;;;;;;;3.63;0.77;;;16.70;99.90;;;;;;4982620;28;20602;-87
2022/06/12 19:42:48;;;;;;;2.83;0.70;;;16.70;99.90;;;;;;4986110;28;20047;-88